Time;durP1;ratioP1;P1;durP2;ratioP2;P2;SDS_P1;SDS_P2;PMS_P1;PMS_P2;Temp;Humidity;BMP_temperature;BMP_pressure;BME280_temperature;BME280_humidity;BME280_pressure;Samples;Min_cycle;Max_cycle;Signal;HPM_P1;HPM_P2
2024/03/05 00:01:17;;;;;;;;;;;;;;;;;;6311927;28;20140;-59
2024/03/05 00:04:21;;;;;;;;;;;;;;;;;;6311317;28;20162;-59
2024/03/05 00:07:25;;;;;;;;;;;;;;;;;;6311085;28;19980;-59
2024/03/05 00:10:31;;;;;;;;;;;;;;;;;;6310871;28;20159;-59
2024/03/05 00:13:35;;;;;;;;;;;;;;;;;;6311203;28;19980;-59
2024/03/05 00:16:39;;;;;;;;;;;;;;;;;;6311812;28;19983;-59
2024/03/05 00:19:43;;;;;;;;;;;;;;;;;;6310928;28;19983;-59
2024/03/05 00:22:46;;;;;;;;;;;;;;;;;;6310662;28;20017;-61
2024/03/05 00:25:52;;;;;;;;;;;;;;;;;;6310853;28;19983;-58
2024/03/05 00:28:58;;;;;;;;;;;;;;;;;;6310549;28;19983;-59
2024/03/05 00:32:01;;;;;;;;;;;;;;;;;;6311386;28;19991;-59
2024/03/05 00:35:05;;;;;;;;;;;;;;;;;;6310562;28;19991;-59
2024/03/05 00:38:09;;;;;;;;;;;;;;;;;;6310431;28;20245;-59
2024/03/05 00:41:26;;;;;;;;;;;;;;;;;;6310994;28;20249;-60
2024/03/05 00:44:30;;;;;;;;;;;;;;;;;;6310447;28;19995;-60
2024/03/05 00:47:33;;;;;;;;;;;;;;;;;;6310642;28;20277;-60
2024/03/05 00:50:38;;;;;;;;;;;;;;;;;;6310322;28;19987;-60
2024/03/05 00:53:42;;;;;;;;;;;;;;;;;;6310084;28;19988;-59
2024/03/05 00:56:48;;;;;;;;;;;;;;;;;;6309807;28;19976;-59
2024/03/05 00:59:53;;;;;;;22.43;12.30;;;;;;;;;;6310218;28;20279;-59
2024/03/05 01:02:57;;;;;;;24.20;13.13;;;;;;;;;;6309546;28;20295;-59
2024/03/05 01:06:03;;;;;;;21.73;12.87;;;;;;;;;;6310142;28;20302;-58
2024/03/05 01:09:11;;;;;;;24.77;12.73;;;;;;;;;;6309225;28;20344;-59
2024/03/05 01:12:17;;;;;;;22.30;12.20;;;;;;;;;;6310005;28;20292;-59
2024/03/05 01:15:21;;;;;;;20.87;12.20;;;;;;;;;;6309471;28;20293;-59
2024/03/05 01:18:24;;;;;;;22.00;12.37;;;;;;;;;;6309222;28;20283;-60
2024/03/05 01:21:30;;;;;;;21.20;12.47;;;;;;;;;;6309727;28;20290;-59
2024/03/05 01:24:34;;;;;;;21.37;12.90;;;;;;;;;;6309277;28;20290;-59
2024/03/05 01:27:39;;;;;;;25.40;12.97;;;;;;;;;;6309775;28;20292;-61
2024/03/05 01:30:43;;;;;;;25.87;12.03;;;;;;;;;;6308341;28;20296;-60
2024/03/05 01:33:47;;;;;;;20.23;13.03;;;;;;;;;;6308891;28;20294;-59
2024/03/05 01:36:56;;;;;;;25.50;14.00;;;;;;;;;;6309635;28;20250;-59
2024/03/05 01:40:01;;;;;;;25.40;12.60;;;;;;;;;;6309199;28;20480;-59
2024/03/05 01:43:06;;;;;;;24.90;13.10;;;;;;;;;;6307796;28;20366;-58
2024/03/05 01:46:13;;;;;;;21.87;12.40;;;;;;;;;;6309618;28;20294;-59
2024/03/05 01:49:18;;;;;;;24.07;12.97;;;;;;;;;;6309389;28;20286;-60
2024/03/05 01:52:22;;;;;;;19.37;13.20;;;;;;;;;;6309687;28;20293;-58
2024/03/05 01:55:26;;;;;;;25.27;12.80;;;;;;;;;;6309263;28;20296;-59
2024/03/05 01:58:32;;;;;;;29.93;14.23;;;;;;;;;;6307152;28;20290;-59
2024/03/05 02:01:36;;;;;;;27.67;13.30;;;;;;;;;;6309475;28;20294;-59
2024/03/05 02:04:42;;;;;;;24.83;13.30;;;;;;;;;;6308959;28;20290;-58
2024/03/05 02:07:47;;;;;;;28.43;13.63;;;;;;;;;;6309679;28;20293;-59
2024/03/05 02:10:51;;;;;;;25.10;13.63;;;;;;;;;;6313925;28;20305;-59
2024/03/05 02:13:57;;;;;;;27.20;12.57;;;;;;;;;;6313539;28;20297;-59
2024/03/05 02:17:01;;;;;;;23.13;12.70;;;;;;;;;;6314116;28;20298;-59
2024/03/05 02:20:09;;;;;;;23.90;12.97;;;;;;;;;;6313052;28;20495;-59
2024/03/05 02:23:16;;;;;;;27.10;13.40;;;;;;;;;;6313211;28;20293;-58
2024/03/05 02:26:20;;;;;;;22.87;13.00;;;;;;;;;;6313442;28;20389;-58
2024/03/05 02:29:25;;;;;;;23.00;13.27;;;;;;;;;;6312905;28;20298;-60
2024/03/05 02:32:29;;;;;;;26.87;13.70;;;;;;;;;;6313513;28;20304;-60
2024/03/05 02:35:33;;;;;;;21.57;12.97;;;;;;;;;;6312751;28;20302;-60
2024/03/05 02:38:39;;;;;;;25.13;12.70;;;;;;;;;;6313078;28;20297;-59
2024/03/05 02:41:42;;;;;;;23.87;13.03;;;;;;;;;;6313084;28;20293;-59
2024/03/05 02:44:46;;;;;;;20.97;12.87;;;;;;;;;;6312914;28;20472;-59
2024/03/05 02:47:51;;;;;;;25.07;13.40;;;;;;;;;;6313048;28;20335;-59
2024/03/05 02:50:55;;;;;;;27.00;12.43;;;;;;;;;;6313114;28;20451;-59
2024/03/05 02:54:01;;;;;;;21.57;13.07;;;;;;;;;;6312961;28;20298;-60
2024/03/05 02:57:07;;;;;;;21.57;11.93;;;;;;;;;;6311616;28;20299;-60
2024/03/05 03:00:18;;;;;;;23.87;11.97;;;;;;;;;;6312535;28;20291;-59
2024/03/05 03:03:23;;;;;;;24.90;12.37;;;;;;;;;;6312264;28;20581;-59
2024/03/05 03:06:27;;;;;;;21.30;12.13;;;;;;;;;;6312933;28;20290;-59
2024/03/05 03:09:32;;;;;;;18.97;11.87;;;;;;;;;;6311779;28;20302;-59
2024/03/05 03:12:36;;;;;;;24.33;12.57;;;;;;;;;;6312465;28;20290;-59
2024/03/05 03:15:41;;;;;;;21.03;12.27;;;;;;;;;;6310975;28;20302;-60
2024/03/05 03:18:45;;;;;;;22.03;11.47;;;;;;;;;;6311303;28;20583;-59
2024/03/05 03:21:49;;;;;;;23.63;13.20;;;;;;;;;;6312237;28;20253;-59
2024/03/05 03:24:54;;;;;;;20.87;12.30;;;;;;;;;;6311758;28;20290;-59
2024/03/05 03:27:59;;;;;;;22.13;12.33;;;;;;;;;;6311247;28;20246;-59
2024/03/05 03:31:05;;;;;;;18.40;11.00;;;;;;;;;;6311678;28;20290;-59
2024/03/05 03:34:10;;;;;;;19.50;11.33;;;;;;;;;;6311880;28;20289;-59
2024/03/05 03:37:14;;;;;;;22.27;11.93;;;;;;;;;;6311650;28;20294;-59
2024/03/05 03:40:21;;;;;;;20.53;11.87;;;;;;;;;;6311167;28;20774;-60
2024/03/05 03:43:26;;;;;;;19.20;11.43;;;;;;;;;;6310681;28;20439;-60
2024/03/05 03:46:30;;;;;;;20.70;11.17;;;;;;;;;;6312152;28;20304;-61
2024/03/05 03:49:35;;;;;;;28.03;12.47;;;;;;;;;;6311161;28;20298;-59
2024/03/05 03:52:41;;;;;;;19.93;11.27;;;;;;;;;;6311923;28;20451;-59
2024/03/05 03:55:46;;;;;;;16.03;10.67;;;;;;;;;;6310735;28;20295;-59
2024/03/05 03:58:50;;;;;;;20.00;11.40;;;;;;;;;;6310787;28;20294;-59
2024/03/05 04:01:54;;;;;;;19.57;11.70;;;;;;;;;;6310562;28;20297;-58
2024/03/05 04:04:58;;;;;;;22.93;12.17;;;;;;;;;;6310310;28;20288;-60
2024/03/05 04:08:02;;;;;;;18.40;11.23;;;;;;;;;;6310261;28;20294;-59
2024/03/05 04:11:10;;;;;;;21.00;12.07;;;;;;;;;;6310906;28;20292;-59
2024/03/05 04:14:14;;;;;;;25.03;12.47;;;;;;;;;;6310494;28;20293;-59
2024/03/05 04:17:19;;;;;;;21.17;11.80;;;;;;;;;;6311230;28;20301;-59
2024/03/05 04:20:25;;;;;;;24.20;11.33;;;;;;;;;;6309858;28;20628;-60
2024/03/05 04:23:29;;;;;;;22.53;11.97;;;;;;;;;;6310347;28;20296;-61
2024/03/05 04:26:37;;;;;;;21.57;12.23;;;;;;;;;;6310779;28;20297;-60
2024/03/05 04:29:47;;;;;;;19.17;11.43;;;;;;;;;;6309800;28;20479;-59
2024/03/05 04:32:52;;;;;;;19.60;11.37;;;;;;;;;;6309953;28;20290;-59
2024/03/05 04:36:09;;;;;;;18.83;10.60;;;;;;;;;;6310441;28;20298;-60
2024/03/05 04:39:15;;;;;;;16.40;10.77;;;;;;;;;;6309546;28;20289;-58
2024/03/05 04:42:22;;;;;;;22.77;10.80;;;;;;;;;;6310321;28;20305;-59
2024/03/05 04:45:26;;;;;;;19.07;10.93;;;;;;;;;;6309988;28;20593;-59
2024/03/05 04:48:30;;;;;;;18.77;10.73;;;;;;;;;;6309790;28;20290;-59
2024/03/05 04:51:34;;;;;;;19.40;10.80;;;;;;;;;;6310211;28;20524;-59
2024/03/05 04:54:38;;;;;;;17.73;10.77;;;;;;;;;;6309746;28;20298;-59
2024/03/05 04:57:44;;;;;;;14.03;9.50;;;;;;;;;;6296290;28;20289;-60
2024/03/05 05:00:49;;;;;;;15.30;9.83;;;;;;;;;;6284817;28;20252;-60
2024/03/05 05:03:53;;;;;;;17.10;10.07;;;;;;;;;;6284602;28;20415;-59
2024/03/05 05:06:57;;;;;;;20.90;10.33;;;;;;;;;;6284926;28;20246;-60
2024/03/05 05:10:01;;;;;;;15.30;9.33;;;;;;;;;;6290137;28;20472;-60
2024/03/05 05:13:06;;;;;;;16.93;10.90;;;;;;;;;;6309383;28;20281;-60
2024/03/05 05:16:11;;;;;;;18.60;9.97;;;;;;;;;;6309672;28;20301;-59
2024/03/05 05:19:16;;;;;;;20.80;10.27;;;;;;;;;;6309493;28;20286;-60
2024/03/05 05:22:20;;;;;;;15.50;9.83;;;;;;;;;;6309792;28;20289;-59
2024/03/05 05:25:24;;;;;;;18.43;9.77;;;;;;;;;;6308911;28;20294;-60
2024/03/05 05:28:30;;;;;;;16.17;9.83;;;;;;;;;;6308705;28;20294;-59
2024/03/05 05:31:34;;;;;;;16.37;9.73;;;;;;;;;;6309949;28;20316;-59
2024/03/05 05:34:39;;;;;;;17.60;9.73;;;;;;;;;;6309249;28;20293;-59
2024/03/05 05:37:44;;;;;;;16.23;9.63;;;;;;;;;;6309160;28;20286;-60
2024/03/05 05:40:49;;;;;;;16.53;9.53;;;;;;;;;;6309198;28;20289;-59
2024/03/05 05:43:54;;;;;;;18.33;10.00;;;;;;;;;;6313562;28;20471;-59
2024/03/05 05:47:03;;;;;;;17.93;9.87;;;;;;;;;;6314966;28;20297;-59
2024/03/05 05:50:18;;;;;;;14.20;9.17;;;;;;;;;;6314830;28;20292;-60
2024/03/05 05:53:22;;;;;;;17.30;9.97;;;;;;;;;;6314032;28;20471;-59
2024/03/05 05:56:26;;;;;;;14.87;9.60;;;;;;;;;;6314893;28;20294;-60
2024/03/05 05:59:31;;;;;;;18.27;8.83;;;;;;;;;;6313740;28;20297;-60
2024/03/05 06:02:36;;;;;;;18.90;10.23;;;;;;;;;;6314019;28;20313;-60
2024/03/05 06:05:42;;;;;;;13.47;9.37;;;;;;;;;;6314444;28;20291;-59
2024/03/05 06:08:46;;;;;;;14.27;8.63;;;;;;;;;;6313658;28;20298;-60
2024/03/05 06:11:50;;;;;;;12.73;8.97;;;;;;;;;;6313763;28;20429;-60
2024/03/05 06:14:56;;;;;;;13.77;8.93;;;;;;;;;;6313588;28;20298;-60
2024/03/05 06:18:00;;;;;;;13.47;8.60;;;;;;;;;;6313623;28;20287;-60
2024/03/05 06:21:05;;;;;;;15.70;8.87;;;;;;;;;;6313889;28;20477;-60
2024/03/05 06:24:09;;;;;;;15.07;8.67;;;;;;;;;;6288567;28;20283;-60
2024/03/05 06:27:13;;;;;;;15.57;8.60;;;;;;;;;;6289336;28;20311;-60
2024/03/05 06:30:19;;;;;;;12.47;8.57;;;;;;;;;;6288541;28;20298;-60
2024/03/05 06:33:23;;;;;;;16.00;9.00;;;;;;;;;;6288203;28;20294;-59
2024/03/05 06:36:27;;;;;;;13.47;8.80;;;;;;;;;;6288900;28;20295;-58
2024/03/05 06:39:35;;;;;;;10.87;8.07;;;;;;;;;;6288467;28;20385;-59
2024/03/05 06:42:40;;;;;;;11.07;8.27;;;;;;;;;;6288006;28;20297;-59
2024/03/05 06:45:46;;;;;;;12.20;7.90;;;;;;;;;;6287704;28;20557;-59
2024/03/05 06:48:52;;;;;;;13.07;8.10;;;;;;;;;;6288576;28;20298;-60
2024/03/05 06:56:39;;;;;;;11.80;7.90;;;;;;;;;;6288328;28;20453;-61
2024/03/05 06:58:44;;;;;;;11.00;6.33;;;;;;;;;;6288472;28;20295;-61
2024/03/05 07:01:50;;;;;;;10.93;7.07;;;;;;;;;;6288868;28;20481;-60
2024/03/05 07:04:54;;;;;;;15.67;7.77;;;;;;;;;;6288444;28;20302;-61
2024/03/05 07:08:00;;;;;;;10.60;6.97;;;;;;;;;;6287785;28;20302;-59
2024/03/05 07:11:05;;;;;;;11.63;7.53;;;;;;;;;;6302834;28;20290;-61
2024/03/05 07:14:09;;;;;;;13.63;7.00;;;;;;;;;;6312008;28;20310;-60
2024/03/05 07:17:15;;;;;;;9.87;6.57;;;;;;;;;;6312632;28;20586;-60
2024/03/05 07:20:22;;;;;;;9.30;6.90;;;;;;;;;;6312130;28;20299;-60
2024/03/05 07:23:28;;;;;;;11.97;6.83;;;;;;;;;;6311908;28;20580;-59
2024/03/05 07:26:34;;;;;;;9.50;6.23;;;;;;;;;;6312427;28;20290;-59
2024/03/05 07:29:38;;;;;;;11.97;6.27;;;;;;;;;;6311807;28;20297;-59
2024/03/05 07:32:46;;;;;;;9.53;6.33;;;;;;;;;;6311516;28;20298;-59
2024/03/05 07:35:51;;;;;;;9.97;6.23;;;;;;;;;;6312102;28;20457;-59
2024/03/05 07:38:55;;;;;;;12.03;6.20;;;;;;;;;;6311684;28;20286;-59
2024/03/05 07:41:59;;;;;;;7.73;6.60;;;;;;;;;;6310807;28;20294;-59
2024/03/05 07:45:05;;;;;;;11.67;6.87;;;;;;;;;;6311518;28;20289;-60
2024/03/05 07:48:11;;;;;;;11.57;7.47;;;;;;;;;;6311376;28;20295;-59
2024/03/05 07:51:15;;;;;;;8.37;6.53;;;;;;;;;;6311803;28;20290;-58
2024/03/05 07:54:27;;;;;;;12.07;7.73;;;;;;;;;;6310903;28;20322;-60
2024/03/05 07:57:31;;;;;;;12.13;6.97;;;;;;;;;;6311446;28;20583;-60
2024/03/05 08:00:37;;;;;;;11.13;6.57;;;;;;;;;;6310518;28;20290;-60
2024/03/05 08:03:42;;;;;;;14.07;6.87;;;;;;;;;;6310015;28;20298;-59
2024/03/05 08:06:46;;;;;;;10.07;6.80;;;;;;;;;;6311198;28;20286;-59
2024/03/05 08:09:50;;;;;;;9.93;6.23;;;;;;;;;;6310312;28;20299;-59
2024/03/05 08:12:55;;;;;;;10.10;6.23;;;;;;;;;;6310471;28;20266;-59
2024/03/05 08:15:59;;;;;;;8.60;6.47;;;;;;;;;;6311188;28;20243;-59
2024/03/05 08:19:04;;;;;;;10.63;6.50;;;;;;;;;;6310773;28;20287;-60
2024/03/05 08:22:08;;;;;;;11.10;6.67;;;;;;;;;;6310629;28;20285;-60
2024/03/05 08:25:13;;;;;;;9.87;6.50;;;;;;;;;;6310161;28;20520;-59
2024/03/05 08:28:17;;;;;;;7.00;6.30;;;;;;;;;;6310151;28;20291;-59
2024/03/05 08:31:21;;;;;;;7.67;5.77;;;;;;;;;;6310866;28;20576;-59
2024/03/05 08:34:26;;;;;;;7.30;6.00;;;;;;;;;;6310008;28;20313;-59
2024/03/05 08:37:31;;;;;;;10.67;6.03;;;;;;;;;;6310735;28;20387;-59
2024/03/05 08:40:35;;;;;;;8.37;6.00;;;;;;;;;;6309720;28;20541;-61
2024/03/05 08:43:40;;;;;;;9.37;6.43;;;;;;;;;;6310407;28;20302;-59
2024/03/05 08:46:44;;;;;;;6.53;5.83;;;;;;;;;;6310256;28;20290;-59
2024/03/05 08:49:50;;;;;;;13.20;6.50;;;;;;;;;;6310041;28;20305;-59
2024/03/05 08:52:55;;;;;;;8.57;5.93;;;;;;;;;;6309959;28;20311;-59
2024/03/05 08:55:58;;;;;;;8.07;5.97;;;;;;;;;;6310445;28;20283;-59
2024/03/05 08:59:05;;;;;;;6.90;5.90;;;;;;;;;;6309657;28;20290;-59
2024/03/05 09:02:09;;;;;;;7.77;6.30;;;;;;;;;;6310133;28;20297;-60
2024/03/05 09:05:16;;;;;;;8.53;6.50;;;;;;;;;;6309633;28;20300;-59
2024/03/05 09:08:20;;;;;;;6.97;6.27;;;;;;;;;;6309018;28;20310;-59
2024/03/05 09:11:24;;;;;;;7.40;6.27;;;;;;;;;;6308715;28;20363;-59
2024/03/05 09:14:28;;;;;;;12.80;6.63;;;;;;;;;;6309819;28;20297;-59
2024/03/05 09:17:32;;;;;;;10.23;5.83;;;;;;;;;;6309355;28;20427;-59
2024/03/05 09:20:37;;;;;;;7.57;6.17;;;;;;;;;;6308711;28;20290;-61
2024/03/05 09:23:41;;;;;;;6.83;6.07;;;;;;;;;;6309064;28;20541;-59
2024/03/05 09:26:45;;;;;;;8.83;6.27;;;;;;;;;;6309734;28;20488;-60
2024/03/05 09:29:50;;;;;;;11.50;6.47;;;;;;;;;;6309343;28;20294;-60
2024/03/05 09:32:53;;;;;;;8.40;6.17;;;;;;;;;;6309255;28;20293;-60
2024/03/05 09:35:59;;;;;;;6.07;5.43;;;;;;;;;;6309747;28;20290;-59
2024/03/05 09:39:09;;;;;;;8.37;6.07;;;;;;;;;;6309180;28;20298;-58
2024/03/05 09:42:15;;;;;;;9.30;6.43;;;;;;;;;;6309902;28;20290;-59
2024/03/05 09:45:19;;;;;;;11.13;6.17;;;;;;;;;;6309382;28;20286;-59
2024/03/05 09:48:23;;;;;;;10.73;5.63;;;;;;;;;;6309474;28;20282;-59
2024/03/05 09:51:29;;;;;;;6.20;5.57;;;;;;;;;;6309624;28;20298;-59
2024/03/05 09:54:34;;;;;;;6.47;5.10;;;;;;;;;;6308978;28;20396;-60
2024/03/05 09:57:40;;;;;;;6.23;5.63;;;;;;;;;;6309428;28;20564;-59
2024/03/05 10:00:45;;;;;;;7.53;5.30;;;;;;;;;;6308900;28;20270;-59
2024/03/05 10:03:49;;;;;;;5.57;5.07;;;;;;;;;;6309195;28;20298;-59
2024/03/05 10:06:55;;;;;;;6.27;5.00;;;;;;;;;;6309740;28;20247;-61
2024/03/05 10:10:07;;;;;;;6.50;5.20;;;;;;;;;;6309003;28;20290;-61
2024/03/05 10:13:11;;;;;;;13.10;5.80;;;;;;;;;;6308649;28;20289;-61
2024/03/05 10:16:16;;;;;;;8.07;5.60;;;;;;;;;;6309567;28;20286;-60
2024/03/05 10:19:20;;;;;;;8.50;5.50;;;;;;;;;;6309217;28;20302;-60
2024/03/05 10:22:26;;;;;;;9.67;5.73;;;;;;;;;;6309478;28;20290;-59
2024/03/05 10:25:31;;;;;;;6.17;5.40;;;;;;;;;;6308931;28;20302;-60
2024/03/05 10:28:35;;;;;;;9.47;5.93;;;;;;;;;;6307748;28;20290;-60
2024/03/05 10:31:40;;;;;;;6.63;5.40;;;;;;;;;;6313460;28;20388;-60
2024/03/05 10:34:45;;;;;;;7.37;5.90;;;;;;;;;;6313031;28;20338;-60
2024/03/05 10:37:58;;;;;;;6.23;5.40;;;;;;;;;;6313327;28;20308;-60
2024/03/05 10:41:03;;;;;;;6.20;4.67;;;;;;;;;;6313641;28;20374;-60
2024/03/05 10:44:09;;;;;;;5.00;4.63;;;;;;;;;;6313193;28;20293;-60
2024/03/05 10:47:13;;;;;;;5.37;4.90;;;;;;;;;;6313136;28;20470;-60
2024/03/05 10:50:19;;;;;;;6.23;5.00;;;;;;;;;;6312709;28;20298;-59
2024/03/05 10:53:25;;;;;;;5.10;4.80;;;;;;;;;;6312653;28;20491;-60
2024/03/05 10:56:29;;;;;;;4.17;3.73;;;;;;;;;;6313012;28;20298;-61
2024/03/05 10:59:52;;;;;;;4.73;4.43;;;;;;;;;;6312942;28;20482;-60
2024/03/05 11:02:59;;;;;;;4.30;3.90;;;;;;;;;;6312666;28;20515;-60
2024/03/05 11:06:04;;;;;;;8.17;4.00;;;;;;;;;;6312519;28;20298;-60
2024/03/05 11:09:09;;;;;;;4.43;4.13;;;;;;;;;;6311839;28;20306;-59
2024/03/05 11:12:17;;;;;;;3.93;3.73;;;;;;;;;;6312551;28;20574;-59
2024/03/05 11:15:21;;;;;;;5.87;4.07;;;;;;;;;;6312218;28;20416;-60
2024/03/05 11:18:28;;;;;;;4.00;3.80;;;;;;;;;;6312042;28;20290;-60
2024/03/05 11:21:36;;;;;;;3.90;3.80;;;;;;;;;;6312397;28;20293;-60
2024/03/05 11:24:42;;;;;;;3.83;3.63;;;;;;;;;;6312054;28;20302;-61
2024/03/05 11:27:48;;;;;;;3.70;3.40;;;;;;;;;;6311010;28;20271;-60
2024/03/05 11:31:09;;;;;;;3.50;3.30;;;;;;;;;;6311978;28;20246;-60
2024/03/05 11:34:14;;;;;;;3.10;3.00;;;;;;;;;;6311583;28;20298;-60
2024/03/05 11:37:20;;;;;;;3.17;3.07;;;;;;;;;;6311921;28;20286;-59
2024/03/05 11:40:32;;;;;;;3.30;3.10;;;;;;;;;;6311080;28;20294;-60
2024/03/05 11:43:37;;;;;;;3.27;3.07;;;;;;;;;;6311469;28;20290;-60
2024/03/05 11:46:46;;;;;;;3.23;3.03;;;;;;;;;;6312415;28;20290;-60
2024/03/05 11:49:51;;;;;;;3.67;3.30;;;;;;;;;;6311755;28;20567;-60
2024/03/05 11:52:55;;;;;;;3.40;3.17;;;;;;;;;;6311395;28;20401;-60
2024/03/05 11:56:08;;;;;;;3.47;3.27;;;;;;;;;;6312022;28;20566;-59
2024/03/05 11:59:13;;;;;;;3.53;3.40;;;;;;;;;;6311538;28;20295;-60
2024/03/05 12:02:17;;;;;;;6.50;3.40;;;;;;;;;;6311978;28;20294;-62
2024/03/05 12:05:21;;;;;;;4.53;3.20;;;;;;;;;;6311654;28;20298;-59
2024/03/05 12:08:25;;;;;;;3.80;3.40;;;;;;;;;;6311019;28;20298;-60
2024/03/05 12:11:32;;;;;;;5.20;4.00;;;;;;;;;;6311727;28;20298;-60
2024/03/05 12:14:37;;;;;;;3.97;3.77;;;;;;;;;;6311218;28;20298;-59
2024/03/05 12:17:41;;;;;;;5.40;4.53;;;;;;;;;;6311136;28;20294;-60
2024/03/05 12:20:47;;;;;;;4.20;3.80;;;;;;;;;;6311533;28;20337;-60
2024/03/05 12:23:51;;;;;;;6.30;4.40;;;;;;;;;;6310787;28;20295;-60
2024/03/05 12:26:56;;;;;;;5.17;3.93;;;;;;;;;;6310631;28;20299;-60
2024/03/05 12:30:02;;;;;;;4.20;3.90;;;;;;;;;;6310416;28;20610;-60
2024/03/05 12:33:06;;;;;;;4.53;4.13;;;;;;;;;;6310132;28;20289;-60
2024/03/05 12:36:15;;;;;;;4.43;4.13;;;;;;;;;;6311049;28;20293;-59
2024/03/05 12:39:19;;;;;;;4.07;3.77;;;;;;;;;;6310324;28;20302;-60
2024/03/05 12:42:25;;;;;;;5.10;4.03;;;;;;;;;;6310616;28;20296;-59
2024/03/05 12:45:30;;;;;;;4.03;3.60;;;;;;;;;;6309987;28;20465;-59
2024/03/05 12:48:36;;;;;;;8.23;3.70;;;;;;;;;;6308533;28;20469;-59
2024/03/05 12:51:39;;;;;;;3.53;3.33;;;;;;;;;;6309626;28;20289;-59
2024/03/05 12:54:43;;;;;;;3.30;3.10;;;;;;;;;;6309267;28;20291;-59
2024/03/05 12:57:48;;;;;;;3.57;3.27;;;;;;;;;;6309589;28;20270;-60
2024/03/05 13:00:55;;;;;;;3.60;3.40;;;;;;;;;;6310072;28;20255;-58
2024/03/05 13:03:59;;;;;;;3.53;3.17;;;;;;;;;;6309550;28;20606;-60
2024/03/05 13:07:03;;;;;;;3.03;2.83;;;;;;;;;;6309949;28;20459;-60
2024/03/05 13:10:09;;;;;;;3.27;3.07;;;;;;;;;;6308729;28;20449;-59
2024/03/05 13:13:19;;;;;;;3.27;3.17;;;;;;;;;;6333471;28;20521;-59
2024/03/05 13:16:23;;;;;;;3.53;3.37;;;;;;;;;;6335035;28;20294;-59
2024/03/05 13:19:27;;;;;;;3.17;3.07;;;;;;;;;;6334688;28;20289;-60
2024/03/05 13:22:31;;;;;;;3.50;3.20;;;;;;;;;;6335027;28;20569;-58
2024/03/05 13:25:35;;;;;;;3.17;3.07;;;;;;;;;;6316455;28;20496;-59
2024/03/05 13:28:40;;;;;;;4.33;3.93;;;;;;;;;;6333930;28;20593;-59
2024/03/05 13:31:44;;;;;;;3.60;3.40;;;;;;;;;;6334778;28;20297;-59
2024/03/05 13:34:53;;;;;;;6.53;4.00;;;;;;;;;;6334606;28;20489;-61
2024/03/05 13:37:57;;;;;;;4.33;4.00;;;;;;;;;;6334003;28;20515;-59
2024/03/05 13:41:01;;;;;;;4.17;3.97;;;;;;;;;;6316161;28;20483;-59
2024/03/05 13:44:07;;;;;;;4.13;3.90;;;;;;;;;;6333557;28;20366;-59
2024/03/05 13:47:13;;;;;;;5.87;4.40;;;;;;;;;;6334543;28;20293;-58
2024/03/05 13:50:17;;;;;;;5.03;3.87;;;;;;;;;;6334419;28;20290;-59
2024/03/05 13:53:22;;;;;;;4.67;4.27;;;;;;;;;;6334481;28;20302;-60
2024/03/05 13:56:28;;;;;;;5.77;5.03;;;;;;;;;;6334882;28;20292;-60
2024/03/05 13:59:33;;;;;;;5.10;4.23;;;;;;;;;;6334291;28;20300;-60
2024/03/05 14:02:37;;;;;;;8.00;5.87;;;;;;;;;;6334805;28;20482;-60
2024/03/05 14:05:41;;;;;;;7.27;5.13;;;;;;;;;;6339682;28;20295;-59
2024/03/05 14:08:45;;;;;;;6.00;5.37;;;;;;;;;;6339056;28;20308;-59
2024/03/05 14:11:49;;;;;;;5.33;4.37;;;;;;;;;;6339371;28;20300;-59
2024/03/05 14:14:55;;;;;;;4.83;4.43;;;;;;;;;;6338931;28;20292;-60
2024/03/05 14:17:59;;;;;;;7.40;4.13;;;;;;;;;;6338373;28;20293;-59
2024/03/05 14:21:04;;;;;;;4.53;4.13;;;;;;;;;;6339275;28;20294;-60
2024/03/05 14:24:12;;;;;;;9.07;5.17;;;;;;;;;;6313544;28;20296;-59
2024/03/05 14:27:16;;;;;;;5.37;4.60;;;;;;;;;;6314049;28;20293;-59
2024/03/05 14:30:25;;;;;;;4.30;3.90;;;;;;;;;;6313414;28;20300;-59
2024/03/05 14:33:29;;;;;;;3.97;3.70;;;;;;;;;;6295264;28;20295;-58
2024/03/05 14:36:33;;;;;;;4.40;4.00;;;;;;;;;;6313652;28;20480;-59
2024/03/05 14:39:37;;;;;;;3.30;3.20;;;;;;;;;;6312678;28;20293;-58
2024/03/05 14:42:43;;;;;;;3.87;3.53;;;;;;;;;;6312093;28;20294;-60
2024/03/05 14:45:49;;;;;;;3.83;3.63;;;;;;;;;;6313095;28;20238;-60
2024/03/05 14:48:53;;;;;;;3.67;3.50;;;;;;;;;;6312509;28;20317;-59
2024/03/05 14:51:57;;;;;;;3.50;3.40;;;;;;;;;;6312981;28;20234;-59
2024/03/05 14:55:01;;;;;;;2.83;2.73;;;;;;;;;;6312601;28;20308;-58
2024/03/05 14:58:05;;;;;;;3.77;3.57;;;;;;;;;;6312221;28;20350;-58
2024/03/05 15:01:11;;;;;;;5.77;2.87;;;;;;;;;;6312930;28;20311;-59
2024/03/05 15:04:14;;;;;;;2.97;2.87;;;;;;;;;;6312425;28;20285;-60
2024/03/05 15:07:19;;;;;;;3.73;3.10;;;;;;;;;;6312840;28;20295;-60
2024/03/05 15:10:28;;;;;;;4.33;3.47;;;;;;;;;;6321237;28;20294;-58
2024/03/05 15:13:32;;;;;;;3.43;3.13;;;;;;;;;;6337640;28;20297;-59
2024/03/05 15:16:37;;;;;;;3.17;2.97;;;;;;;;;;6337552;28;20299;-59
2024/03/05 15:19:41;;;;;;;2.90;2.70;;;;;;;;;;6337850;28;20296;-60
2024/03/05 15:22:48;;;;;;;2.63;2.53;;;;;;;;;;6337066;28;20632;-59
2024/03/05 15:25:52;;;;;;;4.57;2.70;;;;;;;;;;6337326;28;20558;-59
2024/03/05 15:28:58;;;;;;;3.93;3.27;;;;;;;;;;6336789;28;20297;-59
2024/03/05 15:32:06;;;;;;;4.13;2.83;;;;;;;;;;6337200;28;20487;-58
2024/03/05 15:35:10;;;;;;;3.57;2.70;;;;;;;;;;6336194;28;20303;-59
2024/03/05 15:38:13;;;;;;;3.03;2.83;;;;;;;;;;6336083;28;20570;-59
2024/03/05 15:41:17;;;;;;;2.83;2.67;;;;;;;;;;6337333;28;20305;-60
2024/03/05 15:44:21;;;;;;;2.70;2.60;;;;;;;;;;6336572;28;20294;-60
2024/03/05 15:47:27;;;;;;;2.73;2.60;;;;;;;;;;6336986;28;20296;-59
2024/03/05 15:50:31;;;;;;;4.37;2.87;;;;;;;;;;6336272;28;20294;-60
2024/03/05 15:53:35;;;;;;;3.13;2.93;;;;;;;;;;6335940;28;20298;-59
2024/03/05 15:56:56;;;;;;;3.33;2.77;;;;;;;;;;6336658;28;20609;-60
2024/03/05 16:00:11;;;;;;;2.60;2.53;;;;;;;;;;6335736;28;20297;-60
2024/03/05 16:03:16;;;;;;;4.03;2.67;;;;;;;;;;6336999;28;20281;-60
2024/03/05 16:06:21;;;;;;;3.00;2.90;;;;;;;;;;6336806;28;20293;-60
2024/03/05 16:09:24;;;;;;;3.90;2.77;;;;;;;;;;6335880;28;20297;-60
2024/03/05 16:12:29;;;;;;;2.93;2.77;;;;;;;;;;6336435;28;20305;-60
2024/03/05 16:15:34;;;;;;;3.93;2.27;;;;;;;;;;6335684;28;20286;-59
2024/03/05 16:18:40;;;;;;;3.30;2.57;;;;;;;;;;6335637;28;20293;-60
2024/03/05 16:21:46;;;;;;;2.37;2.33;;;;;;;;;;6334983;28;20282;-60
2024/03/05 16:24:50;;;;;;;2.00;2.00;;;;;;;;;;6335573;28;20292;-59
2024/03/05 16:27:57;;;;;;;2.53;2.43;;;;;;;;;;6334353;28;20301;-60
2024/03/05 16:31:01;;;;;;;2.20;2.20;;;;;;;;;;6336228;28;20297;-60
2024/03/05 16:34:09;;;;;;;3.10;2.93;;;;;;;;;;6335292;28;20291;-60
2024/03/05 16:37:15;;;;;;;2.70;2.60;;;;;;;;;;6335783;28;20285;-60
2024/03/05 16:40:20;;;;;;;2.77;2.57;;;;;;;;;;6335201;28;20290;-60
2024/03/05 16:43:24;;;;;;;2.63;2.50;;;;;;;;;;6335272;28;20289;-60
2024/03/05 16:46:33;;;;;;;2.30;2.20;;;;;;;;;;6335584;28;20305;-60
2024/03/05 16:49:39;;;;;;;2.67;2.50;;;;;;;;;;6334717;28;20601;-60
2024/03/05 16:52:44;;;;;;;2.70;2.50;;;;;;;;;;6334665;28;20305;-60
2024/03/05 16:55:48;;;;;;;2.50;2.40;;;;;;;;;;6335758;28;20602;-60
2024/03/05 16:58:52;;;;;;;2.33;2.23;;;;;;;;;;6321030;28;20299;-64
2024/03/05 17:02:01;;;;;;;2.80;2.70;;;;;;;;;;6310633;28;20296;-60
2024/03/05 17:05:07;;;;;;;3.90;2.57;;;;;;;;;;6309467;28;20299;-60
2024/03/05 17:08:14;;;;;;;2.73;2.60;;;;;;;;;;6309445;28;20309;-60
2024/03/05 17:11:20;;;;;;;10.17;3.90;;;;;;;;;;6326560;28;20313;-61
2024/03/05 17:14:25;;;;;;;3.50;2.80;;;;;;;;;;6334796;28;20300;-60
2024/03/05 17:17:32;;;;;;;3.27;3.17;;;;;;;;;;6335201;28;20317;-60
2024/03/05 17:20:38;;;;;;;3.00;2.90;;;;;;;;;;6334045;28;20314;-60
2024/03/05 17:23:44;;;;;;;2.77;2.57;;;;;;;;;;6334717;28;20286;-62
2024/03/05 17:26:49;;;;;;;4.37;2.90;;;;;;;;;;6335188;28;20286;-60
2024/03/05 17:29:53;;;;;;;4.80;2.67;;;;;;;;;;6334117;28;20316;-61
2024/03/05 17:32:57;;;;;;;3.27;2.97;;;;;;;;;;6334145;28;20309;-60
2024/03/05 17:36:02;;;;;;;2.40;2.40;;;;;;;;;;6335033;28;20289;-61
2024/03/05 17:39:10;;;;;;;2.60;2.50;;;;;;;;;;6337852;28;20293;-60
2024/03/05 17:42:14;;;;;;;2.83;2.73;;;;;;;;;;6339869;28;20297;-60
2024/03/05 17:45:18;;;;;;;3.20;3.00;;;;;;;;;;6339183;28;20300;-62
2024/03/05 17:48:22;;;;;;;3.00;2.60;;;;;;;;;;6339552;28;20285;-60
2024/03/05 17:51:29;;;;;;;2.90;2.80;;;;;;;;;;6339852;28;20344;-60
2024/03/05 17:54:33;;;;;;;2.60;2.50;;;;;;;;;;6339493;28;20300;-59
2024/03/05 17:57:39;;;;;;;2.70;2.67;;;;;;;;;;6339224;28;20589;-59
2024/03/05 18:00:44;;;;;;;3.00;2.90;;;;;;;;;;6338481;28;20289;-59
2024/03/05 18:03:49;;;;;;;2.80;2.70;;;;;;;;;;6339405;28;20301;-60
2024/03/05 18:06:55;;;;;;;2.70;2.57;;;;;;;;;;6339391;28;20383;-60
2024/03/05 18:09:59;;;;;;;5.70;2.60;;;;;;;;;;6338771;28;20300;-60
2024/03/05 18:13:04;;;;;;;3.53;3.27;;;;;;;;;;6338838;28;20292;-60
2024/03/05 18:16:09;;;;;;;2.37;2.30;;;;;;;;;;6338955;28;20289;-60
2024/03/05 18:19:12;;;;;;;4.10;2.70;;;;;;;;;;6338674;28;20566;-60
2024/03/05 18:22:18;;;;;;;3.10;2.87;;;;;;;;;;6339146;28;20294;-60
2024/03/05 18:25:22;;;;;;;2.30;2.30;;;;;;;;;;6338695;28;20300;-61
2024/03/05 18:28:26;;;;;;;3.13;2.93;;;;;;;;;;6338653;28;20288;-60
2024/03/05 18:31:32;;;;;;;3.40;2.77;;;;;;;;;;6339064;28;20296;-61